Time;durP1;ratioP1;P1;durP2;ratioP2;P2;SDS_P1;SDS_P2;PMS_P1;PMS_P2;Temp;Humidity;BMP_temperature;BMP_pressure;BME280_temperature;BME280_humidity;BME280_pressure;Samples;Min_cycle;Max_cycle;Signal;HPM_P1;HPM_P2
2023/10/02 00:02:40;;;;;;;;;;;;;;;21.36;47.86;98588.07;105421;1262;74500;-47
2023/10/02 00:05:06;;;;;;;4.40;1.80;;;;;;;21.35;47.76;98587.28;105399;1259;67071;-47
2023/10/02 00:07:34;;;;;;;2.80;1.90;;;;;;;21.35;47.77;98585.46;105449;1262;72508;-47
2023/10/02 00:10:02;;;;;;;3.50;1.50;;;;;;;21.34;47.77;98589.11;105481;1259;61311;-46
2023/10/02 00:12:31;;;;;;;3.70;2.10;;;;;;;21.34;47.74;98587.00;105456;1259;61362;-47
2023/10/02 00:15:12;;;;;;;3.10;1.80;;;;;;;21.34;47.78;98588.40;105457;1259;73207;-47
2023/10/02 00:17:43;;;;;;;3.40;1.70;;;;;;;21.34;47.97;98594.55;105279;1260;65103;-47
2023/10/02 00:20:21;;;;;;;4.70;2.20;;;;;;;21.34;47.71;98596.18;105390;1260;71406;-47
2023/10/02 00:22:50;;;;;;;4.20;2.00;;;;;;;21.33;47.76;98596.71;105446;1259;61181;-47
2023/10/02 00:25:20;;;;;;;3.50;1.80;;;;;;;21.33;47.92;98598.35;105472;1259;61487;-46
2023/10/02 00:27:50;;;;;;;4.10;1.90;;;;;;;21.33;47.82;98597.55;105364;1262;74392;-47
2023/10/02 00:30:20;;;;;;;4.90;2.00;;;;;;;21.33;47.86;98602.08;105459;1259;66374;-46
2023/10/02 00:32:49;;;;;;;5.20;1.90;;;;;;;21.32;47.79;98602.84;105712;1262;72466;-46
2023/10/02 00:35:17;;;;;;;4.40;2.10;;;;;;;21.32;47.84;98607.65;105519;1259;61393;-47
2023/10/02 00:37:45;;;;;;;4.90;2.10;;;;;;;21.32;47.86;98608.52;105455;1259;61359;-47
2023/10/02 00:40:23;;;;;;;2.70;1.80;;;;;;;21.31;47.75;98609.28;105401;1259;74554;-46
2023/10/02 00:42:58;;;;;;;4.00;1.90;;;;;;;21.32;47.81;98608.52;105079;1258;66288;-47
2023/10/02 00:45:38;;;;;;;3.90;2.10;;;;;;;21.31;47.85;98608.80;105105;1259;72609;-47
2023/10/02 00:50:59;;;;;;;4.30;2.00;;;;;;;21.30;47.80;98609.17;105040;1259;61276;-47
2023/10/02 00:53:40;;;;;;;4.40;1.80;;;;;;;21.30;47.99;98612.52;105085;1259;73490;-46
2023/10/02 00:56:19;;;;;;;3.20;1.90;;;;;;;21.30;47.93;98606.81;105108;1264;65647;-47
2023/10/02 00:58:58;;;;;;;5.70;2.00;;;;;;;21.29;47.84;98609.52;105062;1259;72608;-48
2023/10/02 01:01:31;;;;;;;5.50;2.00;;;;;;;21.29;47.94;98603.61;105020;1259;61365;-47
2023/10/02 01:04:10;;;;;;;4.10;1.90;;;;;;;21.29;47.92;98604.67;105086;1259;61366;-47
2023/10/02 01:06:54;;;;;;;4.50;2.10;;;;;;;21.29;48.04;98610.84;105063;1259;72891;-47
2023/10/02 01:09:25;;;;;;;3.70;2.00;;;;;;;21.29;47.90;98608.88;105095;1259;66462;-47
2023/10/02 01:11:56;;;;;;;4.50;2.20;;;;;;;21.28;47.89;98612.54;105056;1259;72591;-47
2023/10/02 01:17:26;;;;;;;4.10;2.20;;;;;;;21.28;47.91;98610.04;104874;1259;61386;-46
2023/10/02 01:19:54;;;;;;;3.80;2.10;;;;;;;21.27;47.98;98611.88;105072;1260;74583;-47
2023/10/02 01:22:28;;;;;;;3.90;1.70;;;;;;;21.28;47.93;98612.60;105005;1265;66670;-47
2023/10/02 01:25:16;;;;;;;3.70;2.10;;;;;;;21.28;47.92;98611.42;105032;1263;72717;-46
2023/10/02 01:27:48;;;;;;;3.10;1.60;;;;;;;21.27;47.96;98610.08;105035;1262;61261;-46
2023/10/02 01:30:21;;;;;;;4.50;2.00;;;;;;;21.27;47.95;98612.48;105107;1262;61262;-47
2023/10/02 01:33:06;;;;;;;3.40;1.80;;;;;;;21.27;47.89;98615.45;105058;1258;73269;-47
2023/10/02 01:35:48;;;;;;;3.70;1.90;;;;;;;21.26;47.83;98617.15;105111;1262;65135;-47
2023/10/02 01:38:33;;;;;;;4.40;1.90;;;;;;;21.26;47.91;98617.83;105081;1260;72464;-47
2023/10/02 01:41:05;;;;;;;2.70;1.90;;;;;;;21.25;47.96;98620.85;105461;1258;61385;-47
2023/10/02 01:44:00;;;;;;;3.60;2.20;;;;;;;21.26;47.96;98626.70;105347;1259;61411;-46
2023/10/02 01:46:30;;;;;;;3.60;1.80;;;;;;;21.25;47.94;98621.62;105180;1259;73441;-47
2023/10/02 01:49:00;;;;;;;3.10;1.80;;;;;;;21.25;48.06;98624.65;105487;1260;66107;-47
2023/10/02 01:51:27;;;;;;;4.60;2.20;;;;;;;21.24;47.96;98621.05;105421;1259;72429;-47
2023/10/02 01:53:56;;;;;;;3.20;1.80;;;;;;;21.24;47.93;98620.84;105257;1263;61403;-47
2023/10/02 01:56:26;;;;;;;3.20;1.80;;;;;;;21.25;47.99;98623.70;105390;1262;61260;-47
2023/10/02 01:58:54;;;;;;;3.40;1.80;;;;;;;21.24;47.92;98622.38;105411;1259;74279;-46
2023/10/02 02:01:21;;;;;;;3.90;2.10;;;;;;;21.24;47.93;98625.71;105023;1265;66248;-46
2023/10/02 02:03:50;;;;;;;2.80;1.90;;;;;;;21.23;47.97;98624.77;105078;1259;72686;-47
2023/10/02 02:06:22;;;;;;;3.70;2.20;;;;;;;21.23;48.07;98626.77;105106;1262;61260;-46
2023/10/02 02:08:58;;;;;;;3.40;1.90;;;;;;;21.23;48.06;98626.67;105092;1259;61292;-46
2023/10/02 02:11:29;;;;;;;3.30;2.10;;;;;;;21.23;48.05;98625.21;105057;1261;74577;-46
2023/10/02 02:14:02;;;;;;;3.60;2.10;;;;;;;21.23;48.12;98624.51;105007;1264;66265;-48
2023/10/02 02:16:38;;;;;;;2.70;1.70;;;;;;;21.22;48.05;98631.48;105023;1259;71419;-46
2023/10/02 02:19:07;;;;;;;4.00;1.90;;;;;;;21.22;48.18;98630.80;105066;1259;61189;-48
2023/10/02 02:21:35;;;;;;;4.00;2.10;;;;;;;21.22;47.93;98631.80;105345;1259;61372;-45
2023/10/02 02:24:08;;;;;;;5.10;2.00;;;;;;;21.22;48.12;98633.13;105174;1261;74361;-48
2023/10/02 02:26:37;;;;;;;3.10;1.70;;;;;;;21.21;48.05;98633.58;105180;1259;66115;-48
2023/10/02 02:29:21;;;;;;;3.70;1.90;;;;;;;21.21;47.88;98639.02;105143;1259;70896;-46
2023/10/02 02:31:49;;;;;;;3.30;1.80;;;;;;;21.21;47.95;98640.19;105267;1262;61292;-47
2023/10/02 02:34:16;;;;;;;3.70;1.90;;;;;;;21.20;48.01;98641.40;105085;1262;61254;-47
2023/10/02 02:36:47;;;;;;;3.40;1.90;;;;;;;21.21;47.97;98641.11;105249;1259;74707;-47
2023/10/02 02:39:17;;;;;;;2.70;1.80;;;;;;;21.20;48.04;98639.98;105072;1259;65380;-47
2023/10/02 02:41:48;;;;;;;2.90;1.70;;;;;;;21.20;48.12;98641.16;105067;1260;72413;-46
2023/10/02 02:47:07;;;;;;;3.50;1.80;;;;;;;21.20;48.04;98643.80;105378;1259;61284;-46
2023/10/02 02:49:48;;;;;;;5.40;2.30;;;;;;;21.19;47.92;98646.81;105458;1261;74618;-46
2023/10/02 02:52:19;;;;;;;3.40;1.70;;;;;;;21.18;47.93;98651.91;105443;1262;66353;-46
2023/10/02 02:54:59;;;;;;;5.20;1.90;;;;;;;21.18;47.97;98654.25;105223;1260;72705;-47
2023/10/02 02:57:27;;;;;;;4.60;1.90;;;;;;;21.17;47.96;98652.83;105266;1262;61243;-47
2023/10/02 03:00:41;;;;;;;4.20;1.80;;;;;;;21.17;47.96;98654.05;105123;1260;61289;-46
2023/10/02 03:02:46;;;;;;;5.60;2.20;;;;;;;21.17;47.88;98658.80;105024;1258;74615;-46
2023/10/02 03:05:14;;;;;;;3.90;2.10;;;;;;;21.16;47.96;98658.10;105102;1260;64683;-47
2023/10/02 03:07:42;;;;;;;4.00;1.90;;;;;;;21.16;48.06;98658.61;105232;1259;72683;-47
2023/10/02 03:10:13;;;;;;;3.20;1.80;;;;;;;21.16;47.85;98660.09;105222;1258;61370;-46
2023/10/02 03:16:45;;;;;;;2.60;1.90;;;;;;;21.15;47.86;98660.45;105067;1260;75077;-47
2023/10/02 03:19:16;;;;;;;2.60;1.80;;;;;;;21.14;47.92;98660.89;105309;1262;65111;-47
2023/10/02 03:21:43;;;;;;;4.50;1.80;;;;;;;21.14;47.96;98662.45;105460;1259;72616;-47
2023/10/02 03:24:12;;;;;;;3.00;1.70;;;;;;;21.13;47.98;98664.23;105409;1262;61285;-47
2023/10/02 03:26:43;;;;;;;3.10;1.90;;;;;;;21.13;48.07;98667.02;105459;1260;61266;-46
2023/10/02 03:29:11;;;;;;;2.80;1.80;;;;;;;21.13;47.93;98664.85;105467;1259;74664;-48
2023/10/02 03:31:49;;;;;;;3.40;2.00;;;;;;;21.13;47.98;98661.48;105184;1262;65598;-47
2023/10/02 03:34:28;;;;;;;3.50;1.90;;;;;;;21.12;47.85;98661.30;105116;1259;72378;-47
2023/10/02 03:37:00;;;;;;;5.80;2.20;;;;;;;21.12;47.91;98666.92;105334;1262;61409;-48
2023/10/02 03:42:22;;;;;;;3.00;2.10;;;;;;;21.12;47.92;98673.77;105309;1259;74689;-48
2023/10/02 03:44:54;;;;;;;3.70;1.90;;;;;;;21.10;48.00;98672.55;105210;1262;66644;-46
2023/10/02 03:47:26;;;;;;;5.30;1.80;;;;;;;21.10;47.93;98672.61;105435;1259;72323;-46
2023/10/02 03:50:00;;;;;;;3.70;1.90;;;;;;;21.10;47.88;98671.91;105443;1259;61286;-47
2023/10/02 03:52:30;;;;;;;3.50;1.90;;;;;;;21.09;47.92;98672.43;105387;1260;61358;-47
2023/10/02 03:55:02;;;;;;;7.00;2.10;;;;;;;21.08;47.89;98673.65;105493;1262;74583;-46
2023/10/02 03:57:50;;;;;;;4.00;2.00;;;;;;;21.09;47.99;98680.89;105308;1262;65496;-46
2023/10/02 04:00:19;;;;;;;3.00;1.80;;;;;;;21.08;47.90;98681.02;105329;1258;72644;-46
2023/10/02 04:02:48;;;;;;;3.30;2.00;;;;;;;21.08;47.94;98681.17;105452;1259;61270;-46
2023/10/02 04:08:21;;;;;;;5.10;2.00;;;;;;;21.07;47.83;98678.22;105599;1261;75075;-46
2023/10/02 04:10:51;;;;;;;3.20;1.80;;;;;;;21.07;47.88;98677.65;105390;1259;66124;-47
2023/10/02 04:13:25;;;;;;;2.90;1.80;;;;;;;21.06;47.80;98682.52;105439;1260;72459;-47
2023/10/02 04:16:28;;;;;;;3.40;1.80;;;;;;;21.06;47.94;98685.27;105085;1262;61259;-47
2023/10/02 04:18:46;;;;;;;3.40;1.90;;;;;;;21.06;47.83;98682.61;105119;1260;61374;-47
2023/10/02 04:21:14;;;;;;;5.20;2.10;;;;;;;21.05;47.89;98681.65;105269;1260;74447;-47
2023/10/02 04:23:45;;;;;;;3.40;2.00;;;;;;;21.05;47.84;98684.38;105361;1262;66121;-47
2023/10/02 04:26:19;;;;;;;4.80;1.60;;;;;;;21.05;47.87;98684.98;105184;1262;72467;-47
2023/10/02 04:28:59;;;;;;;3.50;1.80;;;;;;;21.04;47.85;98690.55;105065;1259;61343;-47
2023/10/02 04:31:28;;;;;;;4.80;2.10;;;;;;;21.04;47.96;98693.50;105917;1259;61205;-47
2023/10/02 04:36:43;;;;;;;3.80;1.80;;;;;;;21.04;47.86;98699.11;105138;1262;65948;-47
2023/10/02 04:44:56;;;;;;;4.30;1.80;;;;;;;21.04;48.04;98708.42;105135;1260;61193;-46
2023/10/02 04:47:30;;;;;;;2.80;2.10;;;;;;;21.04;48.15;98710.83;105149;1260;74639;-48
2023/10/02 04:52:53;;;;;;;3.20;1.90;;;;;;;21.04;48.28;98718.73;105250;1259;72632;-39
2023/10/02 04:55:31;;;;;;;6.60;1.90;;;;;;;21.05;48.36;98720.71;106098;1260;61340;-52
2023/10/02 04:58:08;;;;;;;3.30;1.80;;;;;;;21.06;48.22;98724.71;105444;1260;61171;-50
2023/10/02 05:00:39;;;;;;;5.30;2.10;;;;;;;21.08;48.50;98721.16;105240;1259;74074;-51
2023/10/02 05:03:17;;;;;;;4.40;2.10;;;;;;;21.09;48.42;98725.50;105504;1262;64186;-56
2023/10/02 05:05:49;;;;;;;5.20;1.80;;;;;;;21.12;48.50;98726.98;105333;1262;72495;-51
2023/10/02 05:08:19;;;;;;;5.20;2.10;;;;;;;21.14;48.52;98725.20;105388;1262;61197;-54
2023/10/02 05:10:49;;;;;;;4.40;1.90;;;;;;;21.17;48.63;98724.33;105124;1262;61590;-44
2023/10/02 05:16:11;;;;;;;3.30;2.00;;;;;;;21.22;48.79;98725.20;105177;1262;65991;-45
2023/10/02 05:18:47;;;;;;;4.90;2.40;;;;;;;21.24;48.71;98729.85;105276;1262;72455;-45
2023/10/02 05:21:17;;;;;;;5.40;1.90;;;;;;;21.25;48.73;98726.45;105158;1262;61448;-46
2023/10/02 05:23:56;;;;;;;8.40;2.20;;;;;;;21.26;48.78;98729.93;105223;1262;61180;-42
2023/10/02 05:26:34;;;;;;;4.60;2.30;;;;;;;21.28;48.70;98738.63;105242;1261;74518;-45
2023/10/02 05:29:05;;;;;;;3.80;2.10;;;;;;;21.30;48.75;98739.20;105366;1263;65568;-42
2023/10/02 05:31:40;;;;;;;3.10;2.00;;;;;;;21.30;48.64;98739.33;105337;1263;71733;-43
2023/10/02 05:34:09;;;;;;;7.00;2.20;;;;;;;21.31;48.51;98738.73;105469;1262;61290;-43
2023/10/02 05:36:54;;;;;;;4.70;2.00;;;;;;;21.33;48.55;98739.55;108922;1258;60373;-43
2023/10/02 05:39:39;;;;;;;9.20;2.10;;;;;;;21.34;48.86;98744.43;108865;1258;75233;-44
2023/10/02 05:42:14;;;;;;;7.20;1.90;;;;;;;21.36;48.85;98748.06;105631;1262;66333;-43
2023/10/02 05:44:45;;;;;;;;;;;;;;;21.38;48.95;98747.73;105013;1260;72679;-45
2023/10/02 05:47:15;;;;;;;3.70;1.70;;;;;;;21.40;49.03;98750.98;105058;1262;61179;-46
2023/10/02 05:49:47;;;;;;;3.50;2.00;;;;;;;21.41;48.95;98750.07;105058;1260;61894;-45
2023/10/02 05:52:23;;;;;;;7.40;2.00;;;;;;;21.43;48.95;98745.71;105024;1262;74099;-44
2023/10/02 05:54:54;;;;;;;5.70;2.20;;;;;;;21.44;49.05;98748.33;105060;1262;65823;-43
2023/10/02 05:57:31;;;;;;;5.30;1.80;;;;;;;21.46;49.02;98751.95;104931;1262;73024;-41
2023/10/02 06:00:00;;;;;;;4.80;2.00;;;;;;;21.47;49.06;98761.82;105007;1262;61179;-41
2023/10/02 06:02:36;;;;;;;3.40;1.80;;;;;;;21.49;48.99;98763.33;105540;1262;61283;-41
2023/10/02 06:05:11;;;;;;;9.10;2.60;;;;;;;21.49;49.02;98762.40;105103;1262;74560;-40
2023/10/02 06:07:46;;;;;;;4.40;2.10;;;;;;;21.50;48.76;98764.16;104909;1262;68192;-41
2023/10/02 06:10:25;;;;;;;5.20;2.30;;;;;;;21.51;48.73;98772.35;105009;1265;73851;-41
2023/10/02 06:13:03;;;;;;;5.10;2.10;;;;;;;21.51;48.72;98770.64;105065;1260;61280;-41
2023/10/02 06:15:43;;;;;;;7.30;2.20;;;;;;;21.51;48.80;98769.09;105222;1260;61349;-42
2023/10/02 06:18:27;;;;;;;3.90;2.00;;;;;;;21.52;48.69;98770.67;104814;1264;76111;-42
2023/10/02 06:21:00;;;;;;;3.30;2.00;;;;;;;21.52;48.84;98766.55;105413;1262;67567;-41
2023/10/02 06:23:39;;;;;;;3.10;1.90;;;;;;;21.53;48.60;98762.52;104798;1264;71770;-41
2023/10/02 06:26:18;;;;;;;8.50;2.10;;;;;;;21.53;48.75;98764.96;104447;1267;61393;-43
2023/10/02 06:28:48;;;;;;;5.60;1.90;;;;;;;21.55;48.79;98767.72;104669;1260;61064;-44
2023/10/02 06:31:30;;;;;;;5.90;1.90;;;;;;;21.56;49.02;98764.02;108816;1259;75009;-43
2023/10/02 06:33:58;;;;;;;4.00;2.10;;;;;;;21.58;49.03;98764.33;106089;1262;66141;-41
2023/10/02 06:36:25;;;;;;;8.70;2.60;;;;;;;21.59;49.10;98763.42;104834;1265;72674;-40
2023/10/02 06:38:54;;;;;;;5.30;2.10;;;;;;;21.61;49.12;98763.25;105332;1262;61380;-45
2023/10/02 06:41:23;;;;;;;5.50;2.30;;;;;;;21.62;49.37;98767.17;105033;1265;61302;-46
2023/10/02 06:43:53;;;;;;;5.60;2.20;;;;;;;21.64;49.26;98770.26;105007;1260;74594;-41
2023/10/02 06:46:21;;;;;;;8.60;2.10;;;;;;;21.65;49.36;98769.20;106523;1262;66929;-44
2023/10/02 06:48:54;;;;;;;12.10;2.40;;;;;;;21.67;49.40;98780.47;105023;1262;72974;-46
2023/10/02 06:51:22;;;;;;;5.30;2.30;;;;;;;21.68;49.39;98786.81;108851;1259;59001;-45
2023/10/02 06:53:49;;;;;;;6.80;2.20;;;;;;;21.69;49.42;98791.44;106636;1265;61289;-43
2023/10/02 06:56:18;;;;;;;5.50;2.00;;;;;;;21.69;49.36;98792.46;104938;1261;74693;-45
2023/10/02 06:58:49;;;;;;;8.90;2.50;;;;;;;21.70;49.50;98794.60;104929;1262;66022;-45
2023/10/02 07:01:18;;;;;;;8.60;2.60;;;;;;;21.70;49.61;98797.42;104853;1260;72411;-44
2023/10/02 07:03:52;;;;;;;6.60;2.70;;;;;;;21.71;49.53;98804.47;105862;1262;61372;-46
2023/10/02 07:06:20;;;;;;;8.70;2.90;;;;;;;21.71;49.56;98805.02;104980;1261;61283;-48
2023/10/02 07:08:48;;;;;;;4.80;2.30;;;;;;;21.71;49.58;98806.94;105357;1263;74580;-47
2023/10/02 07:11:18;;;;;;;7.30;2.60;;;;;;;21.72;49.59;98809.20;105153;1261;66852;-46
2023/10/02 07:14:03;;;;;;;9.80;2.60;;;;;;;21.72;49.67;98812.95;104935;1261;72680;-42
2023/10/02 07:16:32;;;;;;;4.70;2.60;;;;;;;21.73;49.90;98817.82;105181;1261;61292;-44
2023/10/02 07:19:00;;;;;;;5.80;2.50;;;;;;;21.74;49.73;98812.86;104986;1263;61375;-47
2023/10/02 07:21:30;;;;;;;9.30;2.50;;;;;;;21.75;49.67;98810.46;106269;1259;74605;-46
2023/10/02 07:24:02;;;;;;;11.70;2.80;;;;;;;21.77;49.82;98808.73;104896;1273;66688;-43
2023/10/02 07:26:51;;;;;;;6.60;2.30;;;;;;;21.79;49.92;98813.40;105039;1264;72742;-53
2023/10/02 07:29:19;;;;;;;7.70;2.70;;;;;;;21.81;49.90;98818.84;105035;1263;61367;-46
2023/10/02 07:31:47;;;;;;;5.70;2.60;;;;;;;21.83;49.92;98818.91;105113;1262;61282;-49
2023/10/02 07:34:15;;;;;;;6.10;2.20;;;;;;;21.85;49.90;98821.94;105919;1260;74726;-48
2023/10/02 07:36:46;;;;;;;8.60;3.00;;;;;;;21.87;49.71;98820.28;104861;1265;65541;-46
2023/10/02 07:42:04;;;;;;;5.70;2.80;;;;;;;21.88;49.77;98822.89;105095;1263;61192;-47
2023/10/02 07:44:37;;;;;;;8.60;3.50;;;;;;;21.89;49.71;98828.84;104954;1263;61345;-48
2023/10/02 07:47:55;;;;;;;8.00;3.20;;;;;;;21.90;49.73;98829.65;105078;1261;74610;-45
2023/10/02 07:50:02;;;;;;;6.30;3.20;;;;;;;21.92;49.66;98841.47;105010;1262;66099;-45
2023/10/02 07:52:46;;;;;;;8.10;3.80;;;;;;;21.94;49.80;98838.48;105226;1265;72615;-43
2023/10/02 07:55:15;;;;;;;8.10;4.30;;;;;;;21.94;49.77;98835.86;105900;1273;61373;-43
2023/10/02 07:57:42;;;;;;;11.80;4.80;;;;;;;21.95;49.94;98837.36;105077;1260;61365;-45
2023/10/02 08:02:59;;;;;;;14.00;6.80;;;;;;;21.98;50.14;98843.14;104948;1262;66372;-42
2023/10/02 08:05:28;;;;;;;16.30;6.60;;;;;;;22.00;49.93;98841.33;104835;1263;70589;-43
2023/10/02 08:08:08;;;;;;;16.40;6.80;;;;;;;22.01;50.07;98837.21;105435;1262;61376;-42
2023/10/02 08:10:49;;;;;;;14.60;6.90;;;;;;;22.02;49.96;98838.67;104777;1263;61895;-42
2023/10/02 08:13:17;;;;;;;15.20;7.00;;;;;;;22.03;50.03;98845.02;105109;1263;74675;-41
2023/10/02 08:15:44;;;;;;;12.70;7.40;;;;;;;22.04;49.92;98846.13;104983;1263;66772;-47
2023/10/02 08:18:18;;;;;;;14.00;7.00;;;;;;;22.05;49.99;98842.41;104927;1263;72616;-48
2023/10/02 08:20:45;;;;;;;13.20;6.90;;;;;;;22.08;50.09;98838.36;104915;1263;61729;-43
2023/10/02 08:23:32;;;;;;;16.90;7.10;;;;;;;22.09;50.07;98838.79;104828;1262;61965;-44
2023/10/02 08:26:02;;;;;;;10.40;6.80;;;;;;;22.11;50.02;98836.67;104947;1261;74412;-42
2023/10/02 08:28:36;;;;;;;14.00;7.10;;;;;;;22.12;50.05;98842.55;104945;1262;66165;-42
2023/10/02 08:31:03;;;;;;;12.80;7.70;;;;;;;22.14;50.09;98846.12;105244;1260;72688;-41
2023/10/02 08:33:31;;;;;;;16.50;8.10;;;;;;;22.16;50.23;98847.65;105090;1265;61266;-44
2023/10/02 08:36:19;;;;;;;19.20;8.70;;;;;;;22.17;50.06;98849.16;104788;1259;61193;-40
2023/10/02 08:38:49;;;;;;;18.60;8.50;;;;;;;22.18;50.05;98849.59;106066;1263;74608;-43
2023/10/02 08:41:28;;;;;;;16.50;7.90;;;;;;;22.20;50.24;98845.81;105115;1260;67211;-42
2023/10/02 08:44:00;;;;;;;14.50;7.90;;;;;;;22.22;50.21;98848.38;104725;1263;72425;-40
2023/10/02 08:46:28;;;;;;;19.70;7.90;;;;;;;22.25;50.25;98849.95;108882;1259;59803;-42
2023/10/02 08:48:55;;;;;;;15.30;7.10;;;;;;;22.28;50.33;98847.95;107511;1265;61239;-42
2023/10/02 08:51:32;;;;;;;14.50;6.80;;;;;;;22.32;50.35;98847.42;104873;1265;75029;-40
2023/10/02 08:54:00;;;;;;;14.00;6.70;;;;;;;22.35;50.29;98841.35;105265;1259;65253;-40
2023/10/02 08:59:35;;;;;;;11.00;6.30;;;;;;;22.38;50.02;98833.80;105002;1259;61406;-41
2023/10/02 09:02:15;;;;;;;13.40;6.20;;;;;;;22.39;50.07;98830.55;104948;1260;61208;-38
2023/10/02 09:04:53;;;;;;;13.80;5.60;;;;;;;22.40;50.13;98826.91;104797;1267;299896;-38
2023/10/02 09:07:22;;;;;;;16.50;5.80;;;;;;;22.42;50.15;98825.02;105051;1263;66683;-41
2023/10/02 09:10:29;;;;;;;7.50;5.20;;;;;;;22.44;50.14;98824.38;105047;1262;72638;-40
2023/10/02 09:13:16;;;;;;;8.60;5.20;;;;;;;22.46;50.02;98825.91;104810;1261;61292;-39
2023/10/02 09:15:45;;;;;;;11.30;5.50;;;;;;;22.48;50.10;98828.38;104864;1265;62904;-41
2023/10/02 09:21:40;;;;;;;9.50;4.20;;;;;;;22.50;50.02;98822.68;104884;1264;66003;-42
2023/10/02 09:24:18;;;;;;;8.60;5.00;;;;;;;22.52;50.19;98823.59;104867;1262;72834;-41
2023/10/02 09:26:46;;;;;;;12.20;4.90;;;;;;;22.54;50.02;98821.62;105292;1263;61276;-42
2023/10/02 09:29:16;;;;;;;10.40;5.00;;;;;;;22.55;50.08;98821.96;105073;1260;61260;-41
2023/10/02 09:31:44;;;;;;;6.90;4.30;;;;;;;22.56;50.12;98816.05;105131;1265;74601;-45
2023/10/02 09:34:16;;;;;;;9.80;4.90;;;;;;;22.58;50.12;98819.30;105489;1259;66923;-45
2023/10/02 09:37:11;;;;;;;11.10;4.40;;;;;;;22.60;50.00;98820.45;104890;1261;73511;-44
2023/10/02 09:40:03;;;;;;;6.60;4.00;;;;;;;22.62;50.09;98819.27;105000;1261;61340;-45
2023/10/02 09:42:36;;;;;;;6.60;3.80;;;;;;;22.63;50.03;98824.62;104908;1265;61433;-44
2023/10/02 09:45:08;;;;;;;8.20;4.50;;;;;;;22.63;49.99;98819.39;105959;1260;74835;-42
2023/10/02 09:47:37;;;;;;;8.40;4.30;;;;;;;22.64;50.08;98825.97;105123;1265;67592;-45
2023/10/02 09:50:26;;;;;;;8.20;4.30;;;;;;;22.65;50.31;98825.85;104856;1264;73554;-43
2023/10/02 09:53:02;;;;;;;12.30;4.60;;;;;;;22.67;50.22;98824.71;104840;1265;61432;-45
2023/10/02 09:55:42;;;;;;;6.80;4.00;;;;;;;22.69;50.23;98824.08;106082;1263;61275;-41
2023/10/02 09:58:26;;;;;;;15.10;4.50;;;;;;;22.70;49.95;98823.24;105108;1264;75540;-43
2023/10/02 10:01:38;;;;;;;8.70;4.30;;;;;;;22.70;50.05;98822.23;104698;1267;67491;-42
2023/10/02 10:04:32;;;;;;;7.50;4.30;;;;;;;22.70;50.09;98823.48;104909;1265;72743;-40
2023/10/02 10:07:09;;;;;;;10.70;4.60;;;;;;;22.70;50.08;98822.71;104949;1274;61260;-44
2023/10/02 10:09:53;;;;;;;10.50;5.30;;;;;;;22.71;49.96;98821.86;105025;1261;61375;-39
2023/10/02 10:13:12;;;;;;;10.80;5.10;;;;;;;22.70;49.77;98818.02;105032;1264;75650;-40
2023/10/02 10:15:31;;;;;;;10.90;5.10;;;;;;;22.70;49.83;98822.30;105085;1261;67074;-40
2023/10/02 10:18:03;;;;;;;11.10;5.30;;;;;;;22.69;49.77;98828.54;105351;1262;74762;-41
2023/10/02 10:20:30;;;;;;;10.90;4.70;;;;;;;22.69;49.80;98827.19;104961;1263;61250;-42
2023/10/02 10:22:58;;;;;;;10.30;5.60;;;;;;;22.69;49.73;98831.02;104980;1261;61804;-40
2023/10/02 10:25:35;;;;;;;9.90;5.00;;;;;;;22.68;49.57;98829.41;105035;1265;75481;-39
2023/10/02 10:28:09;;;;;;;7.20;4.70;;;;;;;22.67;49.37;98828.30;105305;1264;67597;-43
2023/10/02 10:35:36;;;;;;;9.00;4.90;;;;;;;22.64;49.57;98823.48;104780;1260;61348;-48
2023/10/02 10:38:29;;;;;;;11.60;4.90;;;;;;;22.64;49.63;98827.15;104745;1264;76105;-43
2023/10/02 10:41:05;;;;;;;9.10;4.80;;;;;;;22.65;49.91;98820.63;105000;1264;66228;-41
2023/10/02 10:46:21;;;;;;;12.00;5.30;;;;;;;22.66;49.88;98828.83;105131;1264;61281;-43
2023/10/02 10:49:08;;;;;;;10.30;5.30;;;;;;;22.66;49.55;98826.34;105246;1265;61375;-44
2023/10/02 10:51:39;;;;;;;10.80;5.70;;;;;;;22.67;49.57;98826.66;104976;1263;75747;-45
2023/10/02 10:54:19;;;;;;;13.20;5.70;;;;;;;22.66;49.75;98824.86;104811;1261;66105;-43
2023/10/02 10:57:26;;;;;;;11.70;5.40;;;;;;;22.67;49.76;98821.36;104851;1260;72618;-43
2023/10/02 11:00:23;;;;;;;10.00;5.20;;;;;;;22.66;49.79;98814.00;105024;1260;61263;-43
2023/10/02 11:03:07;;;;;;;9.80;5.20;;;;;;;22.65;49.72;98811.66;105443;1261;61274;-44
2023/10/02 11:05:37;;;;;;;12.10;5.80;;;;;;;22.65;49.57;98815.77;104931;1260;73337;-42
2023/10/02 11:08:23;;;;;;;8.60;5.50;;;;;;;22.64;49.48;98814.97;105251;1264;66150;-42
2023/10/02 11:11:11;;;;;;;9.30;5.50;;;;;;;22.64;49.37;98809.81;105049;1261;72517;-42
2023/10/02 11:13:52;;;;;;;15.00;5.60;;;;;;;22.63;49.18;98814.56;104946;1260;61250;-42
2023/10/02 11:16:34;;;;;;;11.00;5.70;;;;;;;22.63;49.00;98817.20;104904;1265;61218;-44
2023/10/02 11:22:15;;;;;;;10.10;5.60;;;;;;;22.61;48.92;98808.02;104866;1264;65866;-43
2023/10/02 11:24:44;;;;;;;12.30;5.00;;;;;;;22.62;48.65;98803.84;104908;1264;71533;-44
2023/10/02 11:27:15;;;;;;;11.20;5.70;;;;;;;22.62;48.73;98806.51;104747;1264;61181;-43
2023/10/02 11:29:45;;;;;;;9.30;4.80;;;;;;;22.63;48.76;98808.70;104770;1261;61241;-43
2023/10/02 11:32:19;;;;;;;12.70;5.30;;;;;;;22.63;48.47;98805.50;104719;1264;74406;-46
2023/10/02 11:34:50;;;;;;;11.20;5.40;;;;;;;22.63;48.58;98802.39;104756;1263;66173;-41
2023/10/02 11:37:18;;;;;;;8.50;4.90;;;;;;;22.63;48.52;98799.66;104941;1260;72759;-43
2023/10/02 11:39:50;;;;;;;7.90;5.00;;;;;;;22.63;48.76;98795.52;105017;1261;61235;-44
2023/10/02 11:42:18;;;;;;;8.20;5.20;;;;;;;22.64;48.77;98803.88;104922;1260;61197;-44
2023/10/02 11:44:46;;;;;;;14.60;9.00;;;;;;;22.64;48.88;98805.98;105113;1261;73963;-42
2023/10/02 11:47:14;;;;;;;27.70;20.00;;;;;;;22.65;48.96;98806.09;105782;1261;66496;-42
2023/10/02 11:49:42;;;;;;;13.60;10.00;;;;;;;22.65;48.82;98806.88;104969;1263;72767;-43
2023/10/02 11:52:10;;;;;;;16.10;9.50;;;;;;;22.64;48.50;98807.23;104962;1261;61280;-44
2023/10/02 11:54:39;;;;;;;14.60;9.20;;;;;;;22.64;48.54;98811.23;106936;1263;61277;-46
2023/10/02 11:57:08;;;;;;;11.20;8.30;;;;;;;22.64;48.70;98812.77;105074;1261;74599;-46
2023/10/02 11:59:41;;;;;;;12.90;9.00;;;;;;;22.64;48.60;98808.33;104795;1266;64929;-44
2023/10/02 12:02:11;;;;;;;13.20;8.00;;;;;;;22.65;48.41;98797.98;108834;1259;72514;-44
2023/10/02 12:04:38;;;;;;;14.70;8.50;;;;;;;22.66;48.53;98800.66;108880;1259;60358;-44
2023/10/02 12:07:06;;;;;;;13.90;8.50;;;;;;;22.67;48.35;98795.40;104909;1260;61167;-42
2023/10/02 12:09:34;;;;;;;14.10;8.10;;;;;;;22.69;48.45;98789.59;105013;1264;74645;-43
2023/10/02 12:12:02;;;;;;;14.70;9.10;;;;;;;22.69;48.41;98788.89;108902;1259;66218;-43
2023/10/02 12:14:30;;;;;;;11.70;8.80;;;;;;;22.71;48.40;98792.53;108854;1259;73012;-43
2023/10/02 12:16:57;;;;;;;9.70;7.80;;;;;;;22.72;48.11;98792.32;108800;1260;59193;-44
2023/10/02 12:19:36;;;;;;;11.80;8.00;;;;;;;22.74;48.28;98791.83;106662;1259;61382;-42
2023/10/02 12:22:06;;;;;;;12.60;8.00;;;;;;;22.76;48.29;98790.85;104750;1259;75455;-43
2023/10/02 12:24:36;;;;;;;13.10;8.70;;;;;;;22.77;48.18;98793.16;104955;1264;65956;-44
2023/10/02 12:27:04;;;;;;;14.10;8.30;;;;;;;22.78;48.47;98793.03;104832;1261;72939;-42
2023/10/02 12:29:31;;;;;;;11.70;8.20;;;;;;;22.79;48.34;98794.62;105204;1263;61247;-44
2023/10/02 12:32:00;;;;;;;11.10;8.00;;;;;;;22.80;48.28;98795.18;104684;1263;61267;-42
2023/10/02 12:34:29;;;;;;;13.60;8.10;;;;;;;22.80;48.36;98791.36;104988;1259;73766;-42
2023/10/02 12:36:56;;;;;;;11.70;7.70;;;;;;;22.80;48.34;98787.16;107693;1260;64724;-42
2023/10/02 12:39:28;;;;;;;15.50;7.50;;;;;;;22.81;48.30;98787.80;104883;1259;73711;-44
2023/10/02 12:41:56;;;;;;;10.40;7.20;;;;;;;22.81;48.25;98784.30;104859;1263;61286;-45
2023/10/02 12:44:24;;;;;;;8.90;6.60;;;;;;;22.81;48.42;98778.52;104780;1259;62645;-44
2023/10/02 12:46:52;;;;;;;10.40;7.00;;;;;;;22.81;48.32;98780.54;104661;1264;75559;-43
2023/10/02 12:49:21;;;;;;;10.50;7.30;;;;;;;22.81;48.43;98777.10;104938;1263;67468;-46
2023/10/02 12:51:50;;;;;;;13.70;7.50;;;;;;;22.81;48.43;98773.92;105581;1264;72680;-44